sensor_id;sensor_type;location;lat;lon;timestamp;P1;durP1;ratioP1;P2;durP2;ratioP2
11685;SDS011;5899;51.282;6.094;2023-07-24T00:18:12;4.07;;;3.10;;
11685;SDS011;5899;51.282;6.094;2023-07-24T00:23:48;4.47;;;3.10;;
11685;SDS011;5899;51.282;6.094;2023-07-24T00:26:39;4.28;;;3.47;;
11685;SDS011;5899;51.282;6.094;2023-07-24T00:29:26;4.70;;;3.03;;
11685;SDS011;5899;51.282;6.094;2023-07-24T00:35:00;4.65;;;3.53;;
11685;SDS011;5899;51.282;6.094;2023-07-24T00:37:50;4.78;;;3.50;;
11685;SDS011;5899;51.282;6.094;2023-07-24T00:40:38;4.75;;;3.50;;
11685;SDS011;5899;51.282;6.094;2023-07-24T00:43:26;4.45;;;3.50;;
11685;SDS011;5899;51.282;6.094;2023-07-24T00:46:23;4.60;;;3.53;;
11685;SDS011;5899;51.282;6.094;2023-07-24T00:49:12;4.43;;;3.33;;
11685;SDS011;5899;51.282;6.094;2023-07-24T01:07:02;3.92;;;3.33;;
11685;SDS011;5899;51.282;6.094;2023-07-24T01:10:27;4.55;;;3.35;;
11685;SDS011;5899;51.282;6.094;2023-07-24T01:15:59;4.30;;;3.33;;
11685;SDS011;5899;51.282;6.094;2023-07-24T01:18:44;4.07;;;3.10;;
11685;SDS011;5899;51.282;6.094;2023-07-24T01:21:38;4.40;;;3.50;;
11685;SDS011;5899;51.282;6.094;2023-07-24T02:15:01;5.50;;;3.50;;
11685;SDS011;5899;51.282;6.094;2023-07-24T02:30:28;4.95;;;3.28;;
11685;SDS011;5899;51.282;6.094;2023-07-24T02:53:39;4.95;;;3.42;;
11685;SDS011;5899;51.282;6.094;2023-07-24T03:47:53;7.28;;;4.03;;
11685;SDS011;5899;51.282;6.094;2023-07-24T03:59:48;5.53;;;3.80;;
11685;SDS011;5899;51.282;6.094;2023-07-24T04:05:29;6.18;;;3.88;;
11685;SDS011;5899;51.282;6.094;2023-07-24T04:08:09;5.05;;;3.50;;
11685;SDS011;5899;51.282;6.094;2023-07-24T04:11:19;5.10;;;3.75;;
11685;SDS011;5899;51.282;6.094;2023-07-24T04:13:37;4.45;;;3.83;;
11685;SDS011;5899;51.282;6.094;2023-07-24T04:16:26;4.68;;;3.78;;
11685;SDS011;5899;51.282;6.094;2023-07-24T04:19:02;5.93;;;3.80;;
11685;SDS011;5899;51.282;6.094;2023-07-24T04:24:54;5.77;;;3.80;;
11685;SDS011;5899;51.282;6.094;2023-07-24T04:27:22;5.50;;;3.30;;
11685;SDS011;5899;51.282;6.094;2023-07-24T04:29:57;4.55;;;3.35;;
11685;SDS011;5899;51.282;6.094;2023-07-24T04:35:28;4.28;;;3.40;;
11685;SDS011;5899;51.282;6.094;2023-07-24T04:38:03;4.30;;;3.38;;
11685;SDS011;5899;51.282;6.094;2023-07-24T04:40:44;4.80;;;3.38;;
11685;SDS011;5899;51.282;6.094;2023-07-24T04:46:20;4.45;;;3.35;;
11685;SDS011;5899;51.282;6.094;2023-07-24T04:49:18;4.30;;;3.13;;
11685;SDS011;5899;51.282;6.094;2023-07-24T04:54:39;5.15;;;3.70;;
11685;SDS011;5899;51.282;6.094;2023-07-24T05:09:14;4.82;;;3.65;;
11685;SDS011;5899;51.282;6.094;2023-07-24T05:12:25;4.57;;;3.72;;
11685;SDS011;5899;51.282;6.094;2023-07-24T05:15:07;4.93;;;3.65;;
11685;SDS011;5899;51.282;6.094;2023-07-24T05:17:48;4.80;;;3.42;;
11685;SDS011;5899;51.282;6.094;2023-07-24T05:20:23;4.57;;;3.65;;
11685;SDS011;5899;51.282;6.094;2023-07-24T05:22:54;5.82;;;3.80;;
11685;SDS011;5899;51.282;6.094;2023-07-24T05:32:29;4.60;;;3.60;;
11685;SDS011;5899;51.282;6.094;2023-07-24T05:35:07;4.05;;;2.97;;
11685;SDS011;5899;51.282;6.094;2023-07-24T05:37:58;4.63;;;3.25;;
11685;SDS011;5899;51.282;6.094;2023-07-24T05:40:35;3.95;;;2.72;;
11685;SDS011;5899;51.282;6.094;2023-07-24T05:43:17;3.88;;;3.08;;
11685;SDS011;5899;51.282;6.094;2023-07-24T05:52:04;4.82;;;3.13;;
11685;SDS011;5899;51.282;6.094;2023-07-24T05:55:14;3.30;;;2.75;;
11685;SDS011;5899;51.282;6.094;2023-07-24T05:57:58;3.55;;;2.75;;
11685;SDS011;5899;51.282;6.094;2023-07-24T06:00:31;2.60;;;2.40;;
11685;SDS011;5899;51.282;6.094;2023-07-24T06:03:09;3.95;;;2.22;;
11685;SDS011;5899;51.282;6.094;2023-07-24T06:05:45;3.00;;;2.60;;
11685;SDS011;5899;51.282;6.094;2023-07-24T06:08:17;3.40;;;2.50;;
11685;SDS011;5899;51.282;6.094;2023-07-24T06:11:05;2.70;;;2.50;;
11685;SDS011;5899;51.282;6.094;2023-07-24T06:14:03;3.43;;;2.67;;
11685;SDS011;5899;51.282;6.094;2023-07-24T06:16:35;3.67;;;2.45;;
11685;SDS011;5899;51.282;6.094;2023-07-24T06:24:23;2.28;;;1.83;;
11685;SDS011;5899;51.282;6.094;2023-07-24T06:31:51;1.60;;;1.50;;
11685;SDS011;5899;51.282;6.094;2023-07-24T06:37:29;2.33;;;1.63;;
11685;SDS011;5899;51.282;6.094;2023-07-24T06:40:26;1.90;;;1.38;;
11685;SDS011;5899;51.282;6.094;2023-07-24T06:49:26;1.42;;;1.30;;
11685;SDS011;5899;51.282;6.094;2023-07-24T06:52:40;2.08;;;1.48;;
11685;SDS011;5899;51.282;6.094;2023-07-24T07:00:41;1.60;;;1.50;;
11685;SDS011;5899;51.282;6.094;2023-07-24T07:01:18;1.63;;;1.40;;
11685;SDS011;5899;51.282;6.094;2023-07-24T07:21:51;2.58;;;1.80;;
11685;SDS011;5899;51.282;6.094;2023-07-24T07:27:47;2.35;;;1.60;;
11685;SDS011;5899;51.282;6.094;2023-07-24T07:30:20;1.77;;;1.50;;
11685;SDS011;5899;51.282;6.094;2023-07-24T07:33:23;1.73;;;1.50;;
11685;SDS011;5899;51.282;6.094;2023-07-24T07:53:49;1.60;;;1.50;;
11685;SDS011;5899;51.282;6.094;2023-07-24T07:56:27;3.35;;;1.80;;
11685;SDS011;5899;51.282;6.094;2023-07-24T07:59:01;2.63;;;1.65;;
11685;SDS011;5899;51.282;6.094;2023-07-24T08:01:51;1.60;;;1.50;;
11685;SDS011;5899;51.282;6.094;2023-07-24T08:04:23;1.83;;;1.50;;
11685;SDS011;5899;51.282;6.094;2023-07-24T08:07:06;2.10;;;1.63;;
11685;SDS011;5899;51.282;6.094;2023-07-24T08:15:20;1.65;;;1.55;;
11685;SDS011;5899;51.282;6.094;2023-07-24T08:17:55;2.38;;;1.85;;
11685;SDS011;5899;51.282;6.094;2023-07-24T08:20:25;1.90;;;1.40;;
11685;SDS011;5899;51.282;6.094;2023-07-24T08:22:56;2.65;;;1.70;;
11685;SDS011;5899;51.282;6.094;2023-07-24T08:25:32;2.03;;;1.75;;
11685;SDS011;5899;51.282;6.094;2023-07-24T08:28:02;2.60;;;1.63;;
11685;SDS011;5899;51.282;6.094;2023-07-24T08:30:45;1.77;;;1.58;;
11685;SDS011;5899;51.282;6.094;2023-07-24T08:33:22;2.40;;;1.60;;
11685;SDS011;5899;51.282;6.094;2023-07-24T08:36:03;1.52;;;1.42;;
11685;SDS011;5899;51.282;6.094;2023-07-24T08:38:35;1.90;;;1.63;;
11685;SDS011;5899;51.282;6.094;2023-07-24T08:41:08;1.63;;;1.40;;
11685;SDS011;5899;51.282;6.094;2023-07-24T08:43:58;2.00;;;1.40;;
11685;SDS011;5899;51.282;6.094;2023-07-24T08:49:16;1.50;;;1.40;;
11685;SDS011;5899;51.282;6.094;2023-07-24T08:51:46;1.37;;;1.27;;
11685;SDS011;5899;51.282;6.094;2023-07-24T08:54:24;2.00;;;1.80;;
11685;SDS011;5899;51.282;6.094;2023-07-24T08:56:52;1.63;;;1.52;;
11685;SDS011;5899;51.282;6.094;2023-07-24T08:59:22;1.67;;;1.50;;
11685;SDS011;5899;51.282;6.094;2023-07-24T09:01:57;1.42;;;1.33;;
11685;SDS011;5899;51.282;6.094;2023-07-24T09:04:31;1.58;;;1.48;;
11685;SDS011;5899;51.282;6.094;2023-07-24T09:07:00;1.90;;;1.52;;
11685;SDS011;5899;51.282;6.094;2023-07-24T09:09:40;2.65;;;1.60;;
11685;SDS011;5899;51.282;6.094;2023-07-24T09:12:17;2.15;;;1.45;;
11685;SDS011;5899;51.282;6.094;2023-07-24T09:15:02;1.45;;;1.35;;
11685;SDS011;5899;51.282;6.094;2023-07-24T09:17:31;1.60;;;1.38;;
11685;SDS011;5899;51.282;6.094;2023-07-24T09:34:28;1.23;;;1.13;;
11685;SDS011;5899;51.282;6.094;2023-07-24T09:37:09;1.23;;;1.13;;
11685;SDS011;5899;51.282;6.094;2023-07-24T09:39:38;1.63;;;1.33;;
11685;SDS011;5899;51.282;6.094;2023-07-24T09:42:07;1.55;;;1.45;;
11685;SDS011;5899;51.282;6.094;2023-07-24T09:44:34;1.50;;;1.30;;
11685;SDS011;5899;51.282;6.094;2023-07-24T09:47:14;1.60;;;1.40;;
11685;SDS011;5899;51.282;6.094;2023-07-24T09:52:48;1.65;;;1.55;;
11685;SDS011;5899;51.282;6.094;2023-07-24T09:55:19;2.60;;;1.60;;
11685;SDS011;5899;51.282;6.094;2023-07-24T09:57:57;2.03;;;1.60;;
11685;SDS011;5899;51.282;6.094;2023-07-24T10:00:58;2.60;;;1.60;;
11685;SDS011;5899;51.282;6.094;2023-07-24T10:03:27;1.60;;;1.50;;
11685;SDS011;5899;51.282;6.094;2023-07-24T10:06:04;1.50;;;1.40;;
11685;SDS011;5899;51.282;6.094;2023-07-24T10:08:43;1.52;;;1.42;;
11685;SDS011;5899;51.282;6.094;2023-07-24T10:11:16;1.70;;;1.60;;
11685;SDS011;5899;51.282;6.094;2023-07-24T10:13:45;2.05;;;1.58;;
11685;SDS011;5899;51.282;6.094;2023-07-24T10:16:12;1.60;;;1.50;;
11685;SDS011;5899;51.282;6.094;2023-07-24T10:18:41;1.50;;;1.40;;
11685;SDS011;5899;51.282;6.094;2023-07-24T10:21:13;1.80;;;1.60;;
11685;SDS011;5899;51.282;6.094;2023-07-24T10:23:59;3.20;;;1.50;;
11685;SDS011;5899;51.282;6.094;2023-07-24T10:26:27;1.90;;;1.50;;
11685;SDS011;5899;51.282;6.094;2023-07-24T10:29:00;1.83;;;1.60;;
11685;SDS011;5899;51.282;6.094;2023-07-24T10:31:28;1.80;;;1.40;;
11685;SDS011;5899;51.282;6.094;2023-07-24T10:33:55;1.50;;;1.40;;
11685;SDS011;5899;51.282;6.094;2023-07-24T10:36:32;1.70;;;1.55;;
11685;SDS011;5899;51.282;6.094;2023-07-24T10:44:53;1.70;;;1.60;;
11685;SDS011;5899;51.282;6.094;2023-07-24T10:47:59;2.07;;;1.53;;
11685;SDS011;5899;51.282;6.094;2023-07-24T10:51:21;1.93;;;1.83;;
11685;SDS011;5899;51.282;6.094;2023-07-24T11:41:39;2.42;;;2.00;;
11685;SDS011;5899;51.282;6.094;2023-07-24T11:47:42;2.65;;;1.98;;
11685;SDS011;5899;51.282;6.094;2023-07-24T11:53:25;2.65;;;2.17;;
11685;SDS011;5899;51.282;6.094;2023-07-24T11:56:41;2.50;;;2.30;;
11685;SDS011;5899;51.282;6.094;2023-07-24T11:58:59;2.40;;;2.20;;
11685;SDS011;5899;51.282;6.094;2023-07-24T12:01:56;4.40;;;2.60;;
11685;SDS011;5899;51.282;6.094;2023-07-24T12:04:33;3.47;;;2.42;;
11685;SDS011;5899;51.282;6.094;2023-07-24T12:07:31;3.30;;;2.83;;
11685;SDS011;5899;51.282;6.094;2023-07-24T12:10:35;3.87;;;3.47;;
11685;SDS011;5899;51.282;6.094;2023-07-24T12:13:32;5.68;;;4.75;;
11685;SDS011;5899;51.282;6.094;2023-07-24T12:16:10;6.57;;;5.35;;
11685;SDS011;5899;51.282;6.094;2023-07-24T12:18:52;6.73;;;5.80;;
11685;SDS011;5899;51.282;6.094;2023-07-24T12:22:02;6.90;;;5.93;;
11685;SDS011;5899;51.282;6.094;2023-07-24T12:24:23;6.25;;;5.55;;
11685;SDS011;5899;51.282;6.094;2023-07-24T12:27:03;6.10;;;5.33;;
11685;SDS011;5899;51.282;6.094;2023-07-24T12:29:42;6.07;;;5.47;;
11685;SDS011;5899;51.282;6.094;2023-07-24T12:32:12;5.60;;;5.10;;
11685;SDS011;5899;51.282;6.094;2023-07-24T12:35:14;5.80;;;4.60;;
11685;SDS011;5899;51.282;6.094;2023-07-24T12:37:49;3.50;;;3.20;;
11685;SDS011;5899;51.282;6.094;2023-07-24T12:40:23;3.13;;;2.83;;
11685;SDS011;5899;51.282;6.094;2023-07-24T12:43:05;2.63;;;2.42;;
11685;SDS011;5899;51.282;6.094;2023-07-24T12:45:35;3.25;;;2.95;;
11685;SDS011;5899;51.282;6.094;2023-07-24T12:48:07;2.75;;;2.55;;
11685;SDS011;5899;51.282;6.094;2023-07-24T12:51:13;2.53;;;2.33;;
11685;SDS011;5899;51.282;6.094;2023-07-24T12:53:29;2.60;;;2.40;;
11685;SDS011;5899;51.282;6.094;2023-07-24T12:56:09;3.05;;;2.13;;
11685;SDS011;5899;51.282;6.094;2023-07-24T12:59:02;2.28;;;2.08;;
11685;SDS011;5899;51.282;6.094;2023-07-24T13:01:39;3.05;;;2.35;;
11685;SDS011;5899;51.282;6.094;2023-07-24T13:04:11;3.13;;;2.10;;
11685;SDS011;5899;51.282;6.094;2023-07-24T13:06:41;2.10;;;1.90;;
11685;SDS011;5899;51.282;6.094;2023-07-24T13:09:10;2.75;;;2.08;;
11685;SDS011;5899;51.282;6.094;2023-07-24T13:11:42;2.10;;;1.90;;
11685;SDS011;5899;51.282;6.094;2023-07-24T13:14:26;2.13;;;1.92;;
11685;SDS011;5899;51.282;6.094;2023-07-24T13:16:57;2.90;;;2.03;;
11685;SDS011;5899;51.282;6.094;2023-07-24T13:19:27;2.22;;;2.00;;
11685;SDS011;5899;51.282;6.094;2023-07-24T13:22:07;2.85;;;2.17;;
11685;SDS011;5899;51.282;6.094;2023-07-24T13:24:46;2.20;;;2.00;;
11685;SDS011;5899;51.282;6.094;2023-07-24T13:27:16;2.03;;;1.85;;
11685;SDS011;5899;51.282;6.094;2023-07-24T13:29:47;2.15;;;1.92;;
11685;SDS011;5899;51.282;6.094;2023-07-24T13:32:20;2.90;;;2.00;;
11685;SDS011;5899;51.282;6.094;2023-07-24T13:34:59;2.42;;;2.22;;
11685;SDS011;5899;51.282;6.094;2023-07-24T13:37:30;2.28;;;1.95;;
11685;SDS011;5899;51.282;6.094;2023-07-24T13:40:01;2.83;;;2.10;;
11685;SDS011;5899;51.282;6.094;2023-07-24T13:42:49;2.30;;;2.10;;
11685;SDS011;5899;51.282;6.094;2023-07-24T13:45:33;2.63;;;2.42;;
11685;SDS011;5899;51.282;6.094;2023-07-24T13:48:07;2.50;;;2.17;;
11685;SDS011;5899;51.282;6.094;2023-07-24T13:50:49;2.88;;;2.25;;
11685;SDS011;5899;51.282;6.094;2023-07-24T13:53:37;2.65;;;2.05;;
11685;SDS011;5899;51.282;6.094;2023-07-24T13:56:06;3.30;;;2.30;;
11685;SDS011;5899;51.282;6.094;2023-07-24T13:58:37;2.72;;;2.42;;
11685;SDS011;5899;51.282;6.094;2023-07-24T14:01:18;2.50;;;2.30;;
11685;SDS011;5899;51.282;6.094;2023-07-24T14:03:52;2.95;;;2.38;;
11685;SDS011;5899;51.282;6.094;2023-07-24T14:06:33;3.03;;;2.47;;
11685;SDS011;5899;51.282;6.094;2023-07-24T14:09:24;2.85;;;2.60;;
11685;SDS011;5899;51.282;6.094;2023-07-24T14:15:15;2.95;;;2.67;;
11685;SDS011;5899;51.282;6.094;2023-07-24T14:18:29;3.67;;;2.60;;
11685;SDS011;5899;51.282;6.094;2023-07-24T14:21:12;3.00;;;2.70;;
11685;SDS011;5899;51.282;6.094;2023-07-24T14:53:33;3.47;;;3.17;;
11685;SDS011;5899;51.282;6.094;2023-07-24T14:56:25;4.13;;;3.40;;
11685;SDS011;5899;51.282;6.094;2023-07-24T14:59:02;5.78;;;4.07;;
11685;SDS011;5899;51.282;6.094;2023-07-24T15:01:44;5.05;;;4.40;;
11685;SDS011;5899;51.282;6.094;2023-07-24T15:05:23;6.50;;;4.63;;
11685;SDS011;5899;51.282;6.094;2023-07-24T15:07:21;4.90;;;4.40;;
11685;SDS011;5899;51.282;6.094;2023-07-24T15:10:06;4.88;;;4.40;;
11685;SDS011;5899;51.282;6.094;2023-07-24T15:12:50;4.45;;;4.05;;
11685;SDS011;5899;51.282;6.094;2023-07-24T15:15:32;4.93;;;4.07;;
11685;SDS011;5899;51.282;6.094;2023-07-24T15:22:05;3.13;;;2.83;;
11685;SDS011;5899;51.282;6.094;2023-07-24T15:36:59;4.25;;;2.20;;
11685;SDS011;5899;51.282;6.094;2023-07-24T15:40:14;2.40;;;2.20;;
11685;SDS011;5899;51.282;6.094;2023-07-24T16:13:45;4.30;;;3.17;;
11685;SDS011;5899;51.282;6.094;2023-07-24T16:21:35;3.13;;;2.70;;
11685;SDS011;5899;51.282;6.094;2023-07-24T16:22:37;3.67;;;2.53;;
11685;SDS011;5899;51.282;6.094;2023-07-24T16:25:26;2.42;;;2.13;;
11685;SDS011;5899;51.282;6.094;2023-07-24T16:28:08;2.20;;;2.00;;
11685;SDS011;5899;51.282;6.094;2023-07-24T16:37:10;2.83;;;2.38;;
11685;SDS011;5899;51.282;6.094;2023-07-24T16:40:17;2.85;;;2.33;;
11685;SDS011;5899;51.282;6.094;2023-07-24T16:42:54;3.13;;;2.38;;
11685;SDS011;5899;51.282;6.094;2023-07-24T16:49:05;2.83;;;2.17;;
11685;SDS011;5899;51.282;6.094;2023-07-24T16:51:47;3.03;;;2.20;;
11685;SDS011;5899;51.282;6.094;2023-07-24T17:03:16;2.88;;;2.58;;
11685;SDS011;5899;51.282;6.094;2023-07-24T17:08:47;3.13;;;2.40;;
11685;SDS011;5899;51.282;6.094;2023-07-24T17:24:17;3.08;;;2.72;;
11685;SDS011;5899;51.282;6.094;2023-07-24T17:27:00;3.00;;;2.70;;
11685;SDS011;5899;51.282;6.094;2023-07-24T17:33:00;4.40;;;3.78;;
11685;SDS011;5899;51.282;6.094;2023-07-24T17:35:46;6.03;;;4.10;;
11685;SDS011;5899;51.282;6.094;2023-07-24T17:38:31;5.78;;;4.40;;
11685;SDS011;5899;51.282;6.094;2023-07-24T17:58:52;5.97;;;4.53;;
11685;SDS011;5899;51.282;6.094;2023-07-24T18:01:24;7.32;;;4.70;;
11685;SDS011;5899;51.282;6.094;2023-07-24T18:04:19;5.90;;;4.17;;
11685;SDS011;5899;51.282;6.094;2023-07-24T18:13:18;5.20;;;4.70;;
11685;SDS011;5899;51.282;6.094;2023-07-24T18:15:58;5.03;;;4.30;;
11685;SDS011;5899;51.282;6.094;2023-07-24T18:18:40;7.95;;;5.40;;
11685;SDS011;5899;51.282;6.094;2023-07-24T18:21:28;5.68;;;5.03;;
11685;SDS011;5899;51.282;6.094;2023-07-24T18:23:58;6.82;;;4.90;;
11685;SDS011;5899;51.282;6.094;2023-07-24T18:30:09;5.88;;;4.93;;
11685;SDS011;5899;51.282;6.094;2023-07-24T19:15:04;8.85;;;6.18;;
11685;SDS011;5899;51.282;6.094;2023-07-24T19:23:27;11.32;;;7.60;;
11685;SDS011;5899;51.282;6.094;2023-07-24T19:27:02;10.88;;;8.82;;
11685;SDS011;5899;51.282;6.094;2023-07-24T19:37:52;6.32;;;5.70;;
11685;SDS011;5899;51.282;6.094;2023-07-24T19:40:29;6.55;;;5.57;;
11685;SDS011;5899;51.282;6.094;2023-07-24T19:47:06;5.43;;;4.83;;
11685;SDS011;5899;51.282;6.094;2023-07-24T19:49:08;5.22;;;4.13;;
11685;SDS011;5899;51.282;6.094;2023-07-24T19:51:54;4.28;;;3.75;;
11685;SDS011;5899;51.282;6.094;2023-07-24T19:54:42;4.22;;;3.80;;
11685;SDS011;5899;51.282;6.094;2023-07-24T19:58:28;6.47;;;3.70;;
11685;SDS011;5899;51.282;6.094;2023-07-24T20:09:35;4.07;;;3.30;;
11685;SDS011;5899;51.282;6.094;2023-07-24T20:26:59;2.60;;;1.70;;
11685;SDS011;5899;51.282;6.094;2023-07-24T20:33:30;2.60;;;1.90;;
11685;SDS011;5899;51.282;6.094;2023-07-24T20:35:59;2.97;;;1.92;;
11685;SDS011;5899;51.282;6.094;2023-07-24T21:49:09;2.92;;;1.73;;
11685;SDS011;5899;51.282;6.094;2023-07-24T21:58:22;2.60;;;1.83;;
11685;SDS011;5899;51.282;6.094;2023-07-24T22:01:01;2.10;;;1.75;;
11685;SDS011;5899;51.282;6.094;2023-07-24T22:03:58;4.30;;;2.50;;
11685;SDS011;5899;51.282;6.094;2023-07-24T22:09:29;2.63;;;1.90;;
11685;SDS011;5899;51.282;6.094;2023-07-24T22:12:05;1.73;;;1.63;;
11685;SDS011;5899;51.282;6.094;2023-07-24T22:20:28;1.95;;;1.70;;
11685;SDS011;5899;51.282;6.094;2023-07-24T22:50:26;2.72;;;1.92;;
11685;SDS011;5899;51.282;6.094;2023-07-24T22:53:20;2.72;;;2.10;;
11685;SDS011;5899;51.282;6.094;2023-07-24T23:02:46;2.20;;;2.00;;
11685;SDS011;5899;51.282;6.094;2023-07-24T23:05:31;3.47;;;2.10;;
11685;SDS011;5899;51.282;6.094;2023-07-24T23:08:21;2.80;;;2.22;;
11685;SDS011;5899;51.282;6.094;2023-07-24T23:11:08;2.87;;;2.03;;
11685;SDS011;5899;51.282;6.094;2023-07-24T23:13:51;3.97;;;2.22;;
11685;SDS011;5899;51.282;6.094;2023-07-24T23:16:22;4.97;;;2.27;;
11685;SDS011;5899;51.282;6.094;2023-07-24T23:43:36;3.60;;;2.30;;
11685;SDS011;5899;51.282;6.094;2023-07-24T23:47:26;4.30;;;1.92;;
11685;SDS011;5899;51.282;6.094;2023-07-24T23:55:31;2.47;;;2.10;;
